Time;durP1;ratioP1;P1;durP2;ratioP2;P2;SDS_P1;SDS_P2;PMS_P1;PMS_P2;Temp;Humidity;BMP_temperature;BMP_pressure;BME280_temperature;BME280_humidity;BME280_pressure;Samples;Min_cycle;Max_cycle;Signal;HPM_P1;HPM_P2
2021/04/16 00:01:58;;;;;;;7.63;3.33;;;;;;;;;;5085421;28;20440;-75
2021/04/16 00:04:24;;;;;;;12.40;3.55;;;;;;;;;;5088398;28;20551;-76
2021/04/16 00:06:50;;;;;;;9.43;3.53;;;;;;;;;;5089900;28;20036;-77
2021/04/16 00:09:16;;;;;;;9.05;3.50;;;;;;;;;;5089753;28;20077;-77
2021/04/16 00:11:43;;;;;;;7.72;3.60;;;;;;;;;;5082938;28;20017;-76
2021/04/16 00:14:10;;;;;;;9.63;4.10;;;;;;;;;;5088385;28;20070;-76
2021/04/16 00:16:36;;;;;;;10.48;4.10;;;;;;;;;;5088940;28;20059;-77
2021/04/16 00:19:02;;;;;;;17.52;4.40;;;;;;;;;;5088972;28;20047;-77
2021/04/16 00:21:28;;;;;;;10.38;3.80;;;;;;;;;;5091145;28;20060;-77
2021/04/16 00:23:54;;;;;;;8.85;3.90;;;;;;;;;;5089340;28;20039;-76
2021/04/16 00:26:21;;;;;;;11.50;3.15;;;;;;;;;;5087178;28;20024;-75
2021/04/16 00:28:47;;;;;;;9.63;3.70;;;;;;;;;;5080389;28;20115;-76
2021/04/16 00:31:13;;;;;;;11.85;3.70;;;;;;;;;;5081819;28;20052;-76
2021/04/16 00:33:39;;;;;;;8.88;3.80;;;;;;;;;;5090991;28;20510;-76
2021/04/16 00:36:05;;;;;;;10.10;3.58;;;;;;;;;;5090834;28;20032;-75
2021/04/16 00:38:31;;;;;;;9.27;4.07;;;;;;;;;;5089234;28;20024;-75
2021/04/16 00:40:59;;;;;;;9.43;3.78;;;;;;;;;;5084937;28;20032;-75
2021/04/16 00:43:26;;;;;;;9.82;3.60;;;;;;;;;;5088466;28;20032;-74
2021/04/16 00:45:59;;;;;;;8.23;3.80;;;;;;;;;;5088580;28;20032;-75
2021/04/16 00:48:31;;;;;;;10.10;3.72;;;;;;;;;;5089055;28;20028;-74
2021/04/16 00:50:58;;;;;;;9.93;3.78;;;;;;;;;;5076993;28;20100;-75
2021/04/16 00:53:25;;;;;;;11.90;3.25;;;;;;;;;;5087980;28;20036;-75
2021/04/16 00:55:52;;;;;;;12.88;3.40;;;;;;;;;;5088056;28;20035;-75
2021/04/16 00:58:20;;;;;;;10.15;3.80;;;;;;;;;;5077504;28;20055;-75
2021/04/16 01:00:48;;;;;;;9.70;3.78;;;;;;;;;;5087478;28;20048;-75
2021/04/16 01:03:14;;;;;;;11.15;3.83;;;;;;;;;;5077058;28;20071;-76
2021/04/16 01:05:40;;;;;;;9.75;3.75;;;;;;;;;;5089957;28;20078;-76
2021/04/16 01:08:06;;;;;;;11.35;3.90;;;;;;;;;;5086904;28;20080;-76
2021/04/16 01:10:33;;;;;;;12.82;4.22;;;;;;;;;;5084431;28;20046;-76
2021/04/16 01:12:59;;;;;;;7.90;3.88;;;;;;;;;;5086440;28;20089;-77
2021/04/16 01:15:31;;;;;;;10.27;4.15;;;;;;;;;;5082185;28;20035;-76
2021/04/16 01:18:00;;;;;;;7.97;3.85;;;;;;;;;;5088632;28;20044;-76
2021/04/16 01:20:28;;;;;;;9.25;3.80;;;;;;;;;;5089804;28;20024;-75
2021/04/16 01:23:12;;;;;;;9.80;3.72;;;;;;;;;;5089106;28;20020;-75
2021/04/16 01:25:38;;;;;;;16.17;3.95;;;;;;;;;;5087165;28;20077;-75
2021/04/16 01:28:05;;;;;;;10.90;3.40;;;;;;;;;;5086056;28;20047;-75
2021/04/16 01:30:32;;;;;;;9.05;3.70;;;;;;;;;;5082655;28;20035;-75
2021/04/16 01:32:58;;;;;;;9.98;3.47;;;;;;;;;;5082927;28;20028;-75
2021/04/16 01:35:29;;;;;;;14.85;3.72;;;;;;;;;;5083091;28;20024;-75
2021/04/16 01:37:55;;;;;;;8.30;3.17;;;;;;;;;;5087329;28;20024;-75
2021/04/16 01:40:22;;;;;;;10.73;3.65;;;;;;;;;;5086315;28;20020;-75
2021/04/16 01:42:48;;;;;;;7.15;3.00;;;;;;;;;;5078018;28;20016;-75
2021/04/16 01:45:16;;;;;;;8.88;3.90;;;;;;;;;;5090446;28;20056;-75
2021/04/16 01:47:42;;;;;;;10.82;3.42;;;;;;;;;;5079837;28;20028;-75
2021/04/16 01:50:09;;;;;;;7.47;3.40;;;;;;;;;;5088471;28;20036;-75
2021/04/16 01:52:35;;;;;;;10.05;3.30;;;;;;;;;;5088451;28;20123;-77
2021/04/16 01:55:02;;;;;;;9.73;2.97;;;;;;;;;;5089796;28;20036;-75
2021/04/16 01:57:30;;;;;;;10.07;3.63;;;;;;;;;;5088733;28;20026;-77
2021/04/16 01:59:57;;;;;;;10.02;3.38;;;;;;;;;;5082155;28;20043;-75
2021/04/16 02:02:33;;;;;;;10.93;3.58;;;;;;;;;;5086657;28;20392;-76
2021/04/16 02:04:59;;;;;;;10.20;3.72;;;;;;;;;;5085341;28;20023;-76
2021/04/16 02:07:25;;;;;;;9.85;4.30;;;;;;;;;;5089382;28;20073;-76
2021/04/16 02:09:51;;;;;;;12.38;3.72;;;;;;;;;;5086602;28;20039;-75
2021/04/16 02:12:22;;;;;;;12.45;3.38;;;;;;;;;;5081605;28;20032;-75
2021/04/16 02:14:50;;;;;;;8.53;3.00;;;;;;;;;;5088556;28;20051;-75
2021/04/16 02:17:17;;;;;;;8.63;3.72;;;;;;;;;;5086530;28;20089;-74
2021/04/16 02:19:43;;;;;;;10.15;3.80;;;;;;;;;;5088908;28;20505;-75
2021/04/16 02:22:13;;;;;;;12.48;3.67;;;;;;;;;;5090325;28;20036;-75
2021/04/16 02:24:39;;;;;;;9.85;3.45;;;;;;;;;;5088010;28;20024;-75
2021/04/16 02:27:05;;;;;;;9.82;4.03;;;;;;;;;;5084355;28;20031;-75
2021/04/16 02:29:31;;;;;;;10.85;3.80;;;;;;;;;;5086637;28;20024;-76
2021/04/16 02:31:57;;;;;;;9.85;3.88;;;;;;;;;;5088573;28;20105;-75
2021/04/16 02:34:25;;;;;;;7.60;2.72;;;;;;;;;;5090660;28;20039;-75
2021/04/16 02:36:51;;;;;;;9.48;3.53;;;;;;;;;;5092252;28;20074;-75
2021/04/16 02:39:18;;;;;;;10.80;3.70;;;;;;;;;;5090457;28;20024;-77
2021/04/16 02:41:44;;;;;;;10.27;3.15;;;;;;;;;;5088563;28;20017;-76
2021/04/16 02:44:10;;;;;;;8.27;2.72;;;;;;;;;;5083896;28;20050;-75
2021/04/16 02:46:37;;;;;;;13.02;3.78;;;;;;;;;;5092221;28;20031;-75
2021/04/16 02:49:03;;;;;;;9.25;4.03;;;;;;;;;;5086045;28;20046;-75
2021/04/16 02:51:29;;;;;;;9.10;3.65;;;;;;;;;;5093238;28;20024;-75
2021/04/16 02:53:55;;;;;;;6.63;3.33;;;;;;;;;;5090583;28;20047;-75
2021/04/16 02:56:22;;;;;;;9.48;3.45;;;;;;;;;;5090004;28;20047;-75
2021/04/16 02:58:48;;;;;;;8.70;3.78;;;;;;;;;;5087437;28;20078;-75
2021/04/16 03:01:14;;;;;;;11.00;3.45;;;;;;;;;;5088998;28;20028;-75
2021/04/16 03:03:40;;;;;;;12.57;3.30;;;;;;;;;;5086737;28;20721;-75
2021/04/16 03:06:06;;;;;;;10.18;3.67;;;;;;;;;;5092351;28;20424;-75
2021/04/16 03:08:33;;;;;;;11.63;4.00;;;;;;;;;;5080135;28;20035;-75
2021/04/16 03:10:59;;;;;;;10.45;3.40;;;;;;;;;;5090488;28;20024;-75
2021/04/16 03:13:25;;;;;;;9.25;3.40;;;;;;;;;;5088001;28;20051;-75
2021/04/16 03:15:51;;;;;;;7.40;3.40;;;;;;;;;;5089727;28;20024;-74
2021/04/16 03:18:18;;;;;;;9.52;3.83;;;;;;;;;;5086811;28;20043;-75
2021/04/16 03:20:44;;;;;;;8.48;3.45;;;;;;;;;;5092976;28;20115;-74
2021/04/16 03:23:10;;;;;;;10.95;3.92;;;;;;;;;;5077493;28;20100;-75
2021/04/16 03:25:36;;;;;;;9.18;4.25;;;;;;;;;;5087260;28;20024;-75
2021/04/16 03:28:03;;;;;;;12.50;4.07;;;;;;;;;;5077913;28;20030;-75
2021/04/16 03:30:30;;;;;;;8.63;3.92;;;;;;;;;;5079960;28;20038;-75
2021/04/16 03:32:56;;;;;;;12.85;4.18;;;;;;;;;;5075620;28;20587;-74
2021/04/16 03:35:22;;;;;;;10.65;3.95;;;;;;;;;;5083940;28;20020;-74
2021/04/16 03:37:48;;;;;;;10.90;4.25;;;;;;;;;;5089950;28;20052;-75
2021/04/16 03:40:16;;;;;;;11.50;4.13;;;;;;;;;;5089979;28;20063;-74
2021/04/16 03:42:42;;;;;;;10.88;4.22;;;;;;;;;;5085996;28;20070;-75
2021/04/16 03:45:09;;;;;;;9.63;3.95;;;;;;;;;;5080054;28;20039;-75
2021/04/16 03:47:35;;;;;;;10.18;4.10;;;;;;;;;;5088050;28;20030;-75
2021/04/16 03:50:01;;;;;;;7.18;3.78;;;;;;;;;;5090441;28;20028;-74
2021/04/16 03:52:29;;;;;;;33.50;7.88;;;;;;;;;;5082602;28;20067;-75
2021/04/16 03:54:55;;;;;;;10.35;4.63;;;;;;;;;;5090993;28;20078;-75
2021/04/16 03:57:22;;;;;;;8.90;4.25;;;;;;;;;;5090419;28;20024;-75
2021/04/16 03:59:48;;;;;;;9.68;3.92;;;;;;;;;;5082234;28;20028;-74
2021/04/16 04:02:15;;;;;;;10.75;4.07;;;;;;;;;;5084956;28;20032;-74
2021/04/16 04:04:41;;;;;;;8.18;4.05;;;;;;;;;;5088904;28;20114;-74
2021/04/16 04:07:07;;;;;;;11.55;4.35;;;;;;;;;;5089622;28;20111;-74
2021/04/16 04:09:35;;;;;;;11.45;4.28;;;;;;;;;;5086423;28;20020;-75
2021/04/16 04:12:01;;;;;;;10.63;4.15;;;;;;;;;;5085737;28;20024;-74
2021/04/16 04:14:27;;;;;;;16.60;4.38;;;;;;;;;;5084581;28;20036;-74
2021/04/16 04:16:58;;;;;;;10.50;3.80;;;;;;;;;;5084468;28;20033;-75
2021/04/16 04:19:24;;;;;;;13.98;4.22;;;;;;;;;;5087581;28;20052;-74
2021/04/16 04:21:51;;;;;;;9.77;4.20;;;;;;;;;;5082095;28;20023;-74
2021/04/16 04:24:17;;;;;;;8.93;4.03;;;;;;;;;;5076506;28;20077;-77
2021/04/16 04:26:44;;;;;;;9.27;4.05;;;;;;;;;;5089826;28;20027;-74
2021/04/16 04:29:11;;;;;;;10.20;4.10;;;;;;;;;;5087363;28;20464;-75
2021/04/16 04:31:46;;;;;;;15.07;4.75;;;;;;;;;;5087730;28;20094;-74
2021/04/16 04:34:12;;;;;;;12.57;4.45;;;;;;;;;;5087205;28;20413;-74
2021/04/16 04:36:38;;;;;;;16.05;4.30;;;;;;;;;;5086052;28;20028;-75
2021/04/16 04:39:04;;;;;;;11.07;4.50;;;;;;;;;;5088659;28;20047;-75
2021/04/16 04:41:31;;;;;;;14.45;5.10;;;;;;;;;;5079993;28;20056;-74
2021/04/16 04:43:57;;;;;;;12.05;5.65;;;;;;;;;;5090488;28;20115;-76
2021/04/16 04:46:23;;;;;;;11.38;4.55;;;;;;;;;;5084908;28;20024;-76
2021/04/16 04:48:49;;;;;;;11.07;4.63;;;;;;;;;;5089341;28;20031;-75
2021/04/16 04:51:15;;;;;;;16.25;5.30;;;;;;;;;;5088710;28;20028;-75
2021/04/16 04:53:41;;;;;;;13.25;6.32;;;;;;;;;;5086146;28;20089;-76
2021/04/16 04:56:07;;;;;;;11.52;4.80;;;;;;;;;;5079756;28;20024;-75
2021/04/16 04:58:33;;;;;;;10.68;4.78;;;;;;;;;;5081286;28;20021;-76
2021/04/16 05:00:59;;;;;;;11.20;5.45;;;;;;;;;;5089156;28;20074;-75
2021/04/16 05:03:25;;;;;;;13.35;5.20;;;;;;;;;;5088115;28;20045;-76
2021/04/16 05:05:51;;;;;;;12.57;6.05;;;;;;;;;;5082783;28;20046;-77
2021/04/16 05:08:17;;;;;;;19.00;5.72;;;;;;;;;;5084677;28;20020;-77
2021/04/16 05:10:43;;;;;;;11.13;5.65;;;;;;;;;;5086037;28;20111;-76
2021/04/16 05:13:09;;;;;;;14.43;6.15;;;;;;;;;;5086597;28;20024;-76
2021/04/16 05:15:35;;;;;;;11.95;5.85;;;;;;;;;;5078856;28;20056;-75
2021/04/16 05:18:01;;;;;;;14.93;5.53;;;;;;;;;;5088012;28;20085;-75
2021/04/16 05:20:27;;;;;;;13.85;5.05;;;;;;;;;;5087175;28;20027;-76
2021/04/16 05:22:53;;;;;;;11.52;5.00;;;;;;;;;;5086500;28;20021;-75
2021/04/16 05:25:19;;;;;;;18.05;6.28;;;;;;;;;;5089037;28;20024;-75
2021/04/16 05:27:46;;;;;;;15.55;6.22;;;;;;;;;;5088877;28;20031;-78
2021/04/16 05:30:12;;;;;;;13.57;5.35;;;;;;;;;;5085119;28;20522;-76
2021/04/16 05:32:38;;;;;;;14.57;5.80;;;;;;;;;;5085330;28;20028;-75
2021/04/16 05:35:05;;;;;;;14.90;5.05;;;;;;;;;;5089250;28;20043;-75
2021/04/16 05:37:31;;;;;;;12.30;4.93;;;;;;;;;;5088117;28;20027;-75
2021/04/16 05:39:57;;;;;;;14.27;5.25;;;;;;;;;;5083800;28;20044;-76
2021/04/16 05:42:23;;;;;;;12.68;5.32;;;;;;;;;;5087305;28;20024;-75
2021/04/16 05:44:49;;;;;;;13.15;6.97;;;;;;;;;;5083157;28;20024;-75
2021/04/16 05:47:15;;;;;;;10.80;5.13;;;;;;;;;;5085046;28;20023;-74
2021/04/16 05:49:42;;;;;;;12.27;5.65;;;;;;;;;;5079003;28;20020;-77
2021/04/16 05:52:08;;;;;;;8.95;4.68;;;;;;;;;;5082118;28;20028;-75
2021/04/16 05:54:34;;;;;;;12.57;5.68;;;;;;;;;;5077879;28;20470;-76
2021/04/16 05:57:00;;;;;;;12.57;5.18;;;;;;;;;;5092768;28;20031;-76
2021/04/16 05:59:26;;;;;;;10.90;4.82;;;;;;;;;;5092233;28;20485;-76
2021/04/16 06:01:52;;;;;;;11.65;4.85;;;;;;;;;;5090858;28;20031;-75
2021/04/16 06:04:20;;;;;;;11.75;4.10;;;;;;;;;;5091202;28;20472;-76
2021/04/16 06:06:46;;;;;;;11.93;4.47;;;;;;;;;;5089167;28;20073;-78
2021/04/16 06:09:12;;;;;;;11.50;5.00;;;;;;;;;;5089931;28;20035;-76
2021/04/16 06:11:38;;;;;;;11.48;5.10;;;;;;;;;;5096855;28;20036;-79
2021/04/16 06:14:05;;;;;;;13.20;6.78;;;;;;;;;;5095014;28;20035;-79
2021/04/16 06:16:31;;;;;;;14.93;5.25;;;;;;;;;;5093526;28;20389;-77
2021/04/16 06:18:57;;;;;;;10.57;4.57;;;;;;;;;;5082969;28;20055;-76
2021/04/16 06:21:23;;;;;;;13.70;4.93;;;;;;;;;;5092851;28;20020;-77
2021/04/16 06:23:50;;;;;;;13.27;4.35;;;;;;;;;;5091573;28;20047;-77
2021/04/16 06:26:16;;;;;;;9.38;3.85;;;;;;;;;;5088525;28;20127;-75
2021/04/16 06:28:43;;;;;;;11.60;5.05;;;;;;;;;;5090135;28;20028;-76
2021/04/16 06:31:10;;;;;;;9.40;4.25;;;;;;;;;;5089812;28;20077;-77
2021/04/16 06:33:38;;;;;;;11.23;4.65;;;;;;;;;;5087839;28;20040;-79
2021/04/16 06:36:09;;;;;;;12.40;4.25;;;;;;;;;;5087944;28;20016;-77
2021/04/16 06:38:39;;;;;;;11.50;3.80;;;;;;;;;;5089102;28;20020;-76
2021/04/16 06:41:25;;;;;;;15.20;4.55;;;;;;;;;;5083774;28;20016;-77
2021/04/16 06:43:53;;;;;;;11.50;4.25;;;;;;;;;;5089175;28;20081;-75
2021/04/16 06:46:48;;;;;;;8.07;3.50;;;;;;;;;;5091761;28;20056;-79
2021/04/16 06:49:15;;;;;;;9.60;3.70;;;;;;;;;;5070796;28;20063;-76
2021/04/16 06:51:53;;;;;;;6.93;3.45;;;;;;;;;;5084752;28;21156;-77
2021/04/16 06:54:21;;;;;;;13.52;3.90;;;;;;;;;;5084554;28;20594;-78
2021/04/16 06:56:48;;;;;;;8.82;3.67;;;;;;;;;;5090405;28;20024;-77
2021/04/16 06:59:25;;;;;;;10.45;3.22;;;;;;;;;;5090112;28;20030;-77
2021/04/16 07:01:52;;;;;;;10.82;3.97;;;;;;;;;;5085505;28;20043;-78
2021/04/16 07:04:27;;;;;;;11.52;4.28;;;;;;;;;;5084386;28;20067;-80
2021/04/16 07:06:54;;;;;;;10.00;3.58;;;;;;;;;;5090723;28;20101;-78
2021/04/16 07:09:29;;;;;;;9.77;3.50;;;;;;;;;;5081765;28;20470;-75
2021/04/16 07:12:06;;;;;;;7.95;3.67;;;;;;;;;;5088941;28;20035;-76
2021/04/16 07:14:37;;;;;;;7.60;3.28;;;;;;;;;;5089148;28;20379;-77
2021/04/16 07:17:05;;;;;;;9.57;3.45;;;;;;;;;;5088801;28;20024;-82
2021/04/16 07:19:31;;;;;;;12.05;3.35;;;;;;;;;;5082960;28;20082;-77
2021/04/16 07:22:01;;;;;;;12.20;3.88;;;;;;;;;;5085491;28;20036;-78
2021/04/16 07:24:27;;;;;;;10.50;3.22;;;;;;;;;;5090639;28;20039;-77
2021/04/16 07:26:57;;;;;;;9.80;2.83;;;;;;;;;;5089352;28;20032;-79
2021/04/16 07:29:45;;;;;;;9.65;3.33;;;;;;;;;;5080912;28;20474;-85
2021/04/16 07:32:14;;;;;;;9.18;2.65;;;;;;;;;;5087785;28;20035;-80
2021/04/16 07:34:46;;;;;;;9.85;3.20;;;;;;;;;;5090946;28;20103;-79
2021/04/16 07:37:18;;;;;;;5.65;2.38;;;;;;;;;;5091009;28;20968;-79
2021/04/16 07:39:49;;;;;;;7.43;2.58;;;;;;;;;;5092145;28;20028;-77
2021/04/16 07:42:17;;;;;;;12.63;2.88;;;;;;;;;;5090023;28;20404;-81
2021/04/16 07:44:58;;;;;;;11.32;3.22;;;;;;;;;;5091963;28;20039;-82
2021/04/16 07:47:28;;;;;;;9.98;2.13;;;;;;;;;;5088115;28;20036;-78
2021/04/16 07:50:03;;;;;;;8.05;2.58;;;;;;;;;;5084045;28;20024;-78
2021/04/16 07:52:40;;;;;;;11.77;3.05;;;;;;;;;;5091077;28;20032;-77
2021/04/16 07:55:06;;;;;;;9.80;3.80;;;;;;;;;;5084560;28;20025;-81
2021/04/16 07:57:33;;;;;;;5.90;2.92;;;;;;;;;;5088485;28;20020;-81
2021/04/16 08:00:01;;;;;;;10.10;2.83;;;;;;;;;;5082298;28;20486;-79
2021/04/16 08:02:30;;;;;;;9.30;2.92;;;;;;;;;;5086780;28;20466;-81
2021/04/16 08:04:56;;;;;;;11.95;3.92;;;;;;;;;;5088394;28;20024;-80
2021/04/16 08:07:30;;;;;;;8.10;3.10;;;;;;;;;;5085958;28;20028;-84
2021/04/16 08:09:57;;;;;;;10.77;3.10;;;;;;;;;;5085007;28;20052;-81
2021/04/16 08:12:25;;;;;;;10.02;3.60;;;;;;;;;;5087282;28;20031;-82
2021/04/16 08:15:10;;;;;;;10.98;3.35;;;;;;;;;;5081275;28;20032;-83
2021/04/16 08:17:36;;;;;;;7.70;2.60;;;;;;;;;;5078562;28;20040;-79
2021/04/16 08:20:21;;;;;;;9.35;2.33;;;;;;;;;;5075592;28;20030;-80
2021/04/16 08:22:48;;;;;;;8.18;2.42;;;;;;;;;;5080768;28;20030;-80
2021/04/16 08:25:17;;;;;;;8.15;2.45;;;;;;;;;;5076812;28;20031;-77
2021/04/16 08:27:43;;;;;;;10.75;2.10;;;;;;;;;;5082946;28;20058;-78
2021/04/16 08:30:09;;;;;;;6.97;2.30;;;;;;;;;;5080787;28;20035;-80
2021/04/16 08:32:48;;;;;;;10.40;2.85;;;;;;;;;;5088881;28;20016;-79
2021/04/16 08:35:29;;;;;;;6.80;2.30;;;;;;;;;;5079846;28;20037;-79
2021/04/16 08:37:57;;;;;;;6.72;2.05;;;;;;;;;;5074930;28;20053;-77
2021/04/16 08:40:28;;;;;;;9.77;2.33;;;;;;;;;;5062870;28;20039;-75
2021/04/16 08:42:56;;;;;;;12.15;2.47;;;;;;;;;;5072296;28;20024;-77
2021/04/16 08:45:26;;;;;;;12.05;3.70;;;;;;;;;;5071965;28;20123;-75
2021/04/16 08:47:52;;;;;;;11.43;2.72;;;;;;;;;;5079768;28;20059;-78
2021/04/16 08:50:20;;;;;;;6.15;2.45;;;;;;;;;;5080408;28;20028;-78
2021/04/16 08:52:48;;;;;;;10.02;1.95;;;;;;;;;;5071366;28;20036;-82
2021/04/16 08:55:14;;;;;;;10.00;2.10;;;;;;;;;;5074116;28;20028;-79
2021/04/16 08:57:50;;;;;;;10.88;2.20;;;;;;;;;;5076917;28;20029;-77
2021/04/16 09:00:18;;;;;;;10.15;2.25;;;;;;;;;;5076367;28;20047;-79
2021/04/16 09:02:44;;;;;;;6.85;1.92;;;;;;;;;;5082341;28;20020;-79
2021/04/16 09:05:14;;;;;;;8.00;2.33;;;;;;;;;;5089394;28;20020;-79
2021/04/16 09:07:45;;;;;;;9.27;2.70;;;;;;;;;;5083884;28;20032;-77
2021/04/16 09:10:16;;;;;;;4.32;1.35;;;;;;;;;;5077427;28;20194;-77
2021/04/16 09:12:53;;;;;;;9.10;1.55;;;;;;;;;;5072323;28;20045;-76
2021/04/16 09:15:19;;;;;;;6.70;1.73;;;;;;;;;;5070015;28;20032;-74
2021/04/16 09:17:51;;;;;;;6.88;2.10;;;;;;;;;;5085993;28;20424;-84
2021/04/16 09:20:35;;;;;;;6.35;2.05;;;;;;;;;;5085417;28;20031;-80
2021/04/16 09:23:04;;;;;;;9.20;2.40;;;;;;;;;;5082206;28;20578;-81
2021/04/16 09:25:30;;;;;;;9.30;2.17;;;;;;;;;;5099855;28;20024;-80
2021/04/16 09:28:16;;;;;;;7.35;2.33;;;;;;;;;;5080967;28;20033;-77
2021/04/16 09:30:42;;;;;;;7.70;2.28;;;;;;;;;;5075604;28;20046;-80
2021/04/16 09:33:28;;;;;;;8.88;1.90;;;;;;;;;;5083368;28;20100;-82
2021/04/16 09:35:57;;;;;;;7.38;1.60;;;;;;;;;;5076081;28;20044;-80
2021/04/16 09:38:24;;;;;;;12.68;1.88;;;;;;;;;;5081952;28;20032;-79
2021/04/16 09:41:08;;;;;;;9.27;1.98;;;;;;;;;;5077291;28;20020;-81
2021/04/16 09:43:35;;;;;;;9.57;2.17;;;;;;;;;;5078612;28;20055;-82
2021/04/16 09:46:01;;;;;;;11.60;1.98;;;;;;;;;;5079594;28;20107;-85
2021/04/16 09:48:55;;;;;;;7.50;1.92;;;;;;;;;;5079776;28;20027;-80
2021/04/16 09:51:30;;;;;;;6.88;1.92;;;;;;;;;;5073529;28;20128;-77
2021/04/16 09:54:08;;;;;;;10.32;3.17;;;;;;;;;;5085772;28;20035;-79
2021/04/16 09:56:53;;;;;;;8.65;2.45;;;;;;;;;;5085717;28;20028;-79
2021/04/16 09:59:28;;;;;;;13.80;2.50;;;;;;;;;;5083619;28;20045;-81
2021/04/16 10:02:19;;;;;;;8.75;2.33;;;;;;;;;;5080186;28;20031;-83
2021/04/16 10:04:57;;;;;;;11.07;1.98;;;;;;;;;;5078066;28;20050;-80
2021/04/16 10:07:43;;;;;;;14.82;2.75;;;;;;;;;;5079544;28;20017;-81
2021/04/16 10:10:15;;;;;;;10.05;2.40;;;;;;;;;;5075989;28;20097;-78
2021/04/16 10:12:41;;;;;;;9.20;2.25;;;;;;;;;;5081657;28;20020;-78
2021/04/16 10:15:18;;;;;;;11.70;2.10;;;;;;;;;;5082031;28;20020;-81
2021/04/16 10:17:54;;;;;;;9.50;2.78;;;;;;;;;;5081691;28;20216;-81
2021/04/16 10:20:21;;;;;;;18.45;2.60;;;;;;;;;;5074983;28;20731;-79
2021/04/16 10:22:57;;;;;;;11.77;2.33;;;;;;;;;;5077600;28;20097;-81
2021/04/16 12:40:27;;;;;;;11.23;2.30;;;;;;;;;;5082949;28;20447;-76
2021/04/16 12:42:57;;;;;;;14.40;3.38;;;;;;;;;;5080170;28;20595;-74
2021/04/16 12:45:24;;;;;;;11.10;2.88;;;;;;;;;;5074301;28;20043;-77
2021/04/16 12:47:57;;;;;;;10.23;2.35;;;;;;;;;;5075326;28;20036;-76
2021/04/16 12:50:23;;;;;;;17.13;4.70;;;;;;;;;;5078053;28;20516;-76
2021/04/16 12:52:49;;;;;;;13.10;2.78;;;;;;;;;;5077693;28;20065;-74
2021/04/16 12:55:15;;;;;;;14.35;3.45;;;;;;;;;;5079009;28;20028;-75
2021/04/16 12:57:44;;;;;;;13.13;2.60;;;;;;;;;;5078591;28;20065;-80
2021/04/16 13:00:17;;;;;;;18.08;4.20;;;;;;;;;;5072623;28;20023;-75
2021/04/16 13:02:43;;;;;;;12.50;3.17;;;;;;;;;;5084234;28;20449;-74
2021/04/16 13:05:13;;;;;;;11.35;2.53;;;;;;;;;;5081878;28;20081;-79
2021/04/16 13:07:39;;;;;;;11.40;2.58;;;;;;;;;;5081737;28;20024;-76
2021/04/16 13:10:10;;;;;;;18.80;3.08;;;;;;;;;;5082558;28;20028;-76
2021/04/16 13:12:39;;;;;;;9.35;2.58;;;;;;;;;;5085641;28;20027;-76
2021/04/16 13:15:05;;;;;;;7.97;2.97;;;;;;;;;;5082950;28;20028;-73
2021/04/16 13:17:31;;;;;;;8.48;2.35;;;;;;;;;;5072868;28;20024;-76
2021/04/16 13:19:58;;;;;;;11.60;2.90;;;;;;;;;;5069846;28;20063;-77
2021/04/16 13:22:25;;;;;;;11.10;3.20;;;;;;;;;;5074594;28;20024;-77
2021/04/16 13:24:52;;;;;;;11.43;2.90;;;;;;;;;;5075278;28;20109;-75
2021/04/16 13:27:19;;;;;;;13.93;3.42;;;;;;;;;;5076509;28;20024;-75
2021/04/16 13:29:46;;;;;;;13.95;3.80;;;;;;;;;;5074847;28;21372;-75
2021/04/16 13:32:21;;;;;;;12.95;3.30;;;;;;;;;;5075486;28;20221;-79
2021/04/16 13:34:47;;;;;;;18.40;4.60;;;;;;;;;;5074440;28;20036;-76
2021/04/16 13:37:15;;;;;;;15.20;3.10;;;;;;;;;;5076168;28;20024;-75
2021/04/16 13:39:42;;;;;;;20.02;4.28;;;;;;;;;;5074011;28;20535;-77
2021/04/16 13:42:09;;;;;;;17.45;3.75;;;;;;;;;;5073675;28;20521;-75
2021/04/16 13:44:35;;;;;;;19.58;4.47;;;;;;;;;;5072754;28;20174;-76
2021/04/16 13:47:02;;;;;;;16.10;4.82;;;;;;;;;;5075038;28;20037;-80
2021/04/16 13:49:33;;;;;;;10.63;4.43;;;;;;;;;;5074303;28;20035;-75
2021/04/16 13:51:59;;;;;;;20.58;5.88;;;;;;;;;;5074350;28;20032;-77
2021/04/16 13:54:25;;;;;;;15.20;4.35;;;;;;;;;;5093516;28;20028;-77
2021/04/16 13:56:52;;;;;;;25.58;5.32;;;;;;;;;;5074528;28;20024;-76
2021/04/16 13:59:18;;;;;;;27.73;5.63;;;;;;;;;;5075037;28;20025;-78
2021/04/16 14:01:44;;;;;;;17.98;5.25;;;;;;;;;;5081331;28;20016;-76
2021/04/16 14:04:18;;;;;;;16.75;5.75;;;;;;;;;;5077666;28;20110;-75
2021/04/16 14:06:44;;;;;;;14.75;4.55;;;;;;;;;;5075639;28;20024;-73
2021/04/16 14:09:13;;;;;;;16.20;5.57;;;;;;;;;;5074578;28;20080;-72
2021/04/16 14:11:39;;;;;;;16.98;5.68;;;;;;;;;;5078281;28;20510;-77
2021/04/16 14:14:07;;;;;;;14.00;5.22;;;;;;;;;;5080337;28;20028;-74
2021/04/16 14:16:35;;;;;;;20.88;5.72;;;;;;;;;;5090464;28;20016;-75
2021/04/16 14:19:04;;;;;;;13.55;5.78;;;;;;;;;;5087225;28;20682;-75
2021/04/16 14:21:32;;;;;;;16.75;4.88;;;;;;;;;;5091607;28;20058;-75
2021/04/16 14:23:58;;;;;;;18.70;6.05;;;;;;;;;;5083605;28;20678;-76
2021/04/16 14:26:24;;;;;;;21.73;6.50;;;;;;;;;;5087784;28;20027;-77
2021/04/16 14:28:50;;;;;;;19.92;6.82;;;;;;;;;;5086586;28;20063;-74
2021/04/16 14:31:16;;;;;;;18.20;5.25;;;;;;;;;;5086186;28;20070;-75
2021/04/16 14:33:43;;;;;;;19.98;6.60;;;;;;;;;;5091113;28;20020;-77
2021/04/16 14:36:09;;;;;;;17.95;6.35;;;;;;;;;;5100582;28;20041;-74
2021/04/16 14:38:36;;;;;;;22.30;5.68;;;;;;;;;;5089929;28;20020;-74
2021/04/16 14:41:04;;;;;;;18.42;6.47;;;;;;;;;;5087802;28;20031;-73
2021/04/16 14:43:31;;;;;;;20.13;5.85;;;;;;;;;;5091598;28;20036;-77
2021/04/16 14:45:57;;;;;;;16.52;6.38;;;;;;;;;;5100974;28;20028;-76
2021/04/16 14:48:24;;;;;;;20.70;6.32;;;;;;;;;;5091497;28;20063;-77
2021/04/16 14:50:52;;;;;;;19.65;5.78;;;;;;;;;;5096830;28;20070;-76
2021/04/16 14:53:20;;;;;;;15.77;5.38;;;;;;;;;;5093743;28;20019;-75
2021/04/16 14:55:47;;;;;;;22.00;5.72;;;;;;;;;;5094534;28;20032;-77
2021/04/16 14:58:15;;;;;;;16.15;5.47;;;;;;;;;;5091299;28;20114;-76
2021/04/16 15:00:41;;;;;;;21.42;7.35;;;;;;;;;;5088519;28;20020;-76
2021/04/16 15:03:07;;;;;;;21.40;5.15;;;;;;;;;;5093768;28;20044;-73
2021/04/16 15:05:34;;;;;;;17.45;5.85;;;;;;;;;;5087018;28;20472;-75
2021/04/16 15:08:06;;;;;;;22.63;5.97;;;;;;;;;;5079463;28;20056;-74
2021/04/16 15:10:38;;;;;;;15.68;4.25;;;;;;;;;;5080420;28;20047;-76
2021/04/16 15:13:06;;;;;;;19.98;5.43;;;;;;;;;;5086910;28;20035;-72
2021/04/16 15:15:36;;;;;;;20.75;4.65;;;;;;;;;;5085269;28;20024;-75
2021/04/16 15:18:03;;;;;;;18.80;5.32;;;;;;;;;;5087360;28;20043;-75
2021/04/16 15:20:30;;;;;;;18.38;4.75;;;;;;;;;;5082180;28;20032;-77
2021/04/16 15:23:00;;;;;;;23.17;4.80;;;;;;;;;;5084842;28;20098;-75
2021/04/16 15:25:26;;;;;;;19.40;4.25;;;;;;;;;;5083838;28;20043;-77
2021/04/16 15:27:56;;;;;;;23.27;5.38;;;;;;;;;;5086261;28;20494;-75
2021/04/16 15:30:31;;;;;;;32.08;4.80;;;;;;;;;;5079225;28;20526;-75
2021/04/16 15:32:57;;;;;;;16.55;4.30;;;;;;;;;;5085850;28;20060;-76
2021/04/16 15:47:13;;;;;;;21.73;5.63;;;;;;;;;;5082691;28;20032;-73
2021/04/16 15:49:31;;;;;;;21.02;4.72;;;;;;;;;;5079745;28;20106;-75
2021/04/16 15:51:57;;;;;;;23.67;4.97;;;;;;;;;;5090144;28;20024;-74
2021/04/16 15:54:23;;;;;;;18.40;4.50;;;;;;;;;;5087428;28;20524;-75
2021/04/16 15:56:51;;;;;;;27.77;4.80;;;;;;;;;;5089039;28;20103;-75
2021/04/16 15:59:32;;;;;;;16.65;3.88;;;;;;;;;;5086846;28;20024;-75
2021/04/16 16:02:18;;;;;;;28.88;4.57;;;;;;;;;;5089750;28;20024;-74
2021/04/16 16:04:46;;;;;;;19.77;4.03;;;;;;;;;;5086811;28;20028;-76
2021/04/16 16:07:12;;;;;;;17.27;4.05;;;;;;;;;;5087340;28;20032;-76
2021/04/16 16:09:39;;;;;;;23.42;4.57;;;;;;;;;;5087388;28;20016;-75
2021/04/16 16:12:10;;;;;;;23.00;4.15;;;;;;;;;;5089486;28;20059;-75
2021/04/16 16:14:41;;;;;;;23.42;6.00;;;;;;;;;;5087195;28;20074;-78
2021/04/16 16:17:09;;;;;;;27.70;6.28;;;;;;;;;;5084211;28;20035;-77
2021/04/16 16:19:35;;;;;;;26.73;5.90;;;;;;;;;;5088519;28;20035;-77
2021/04/16 16:22:02;;;;;;;18.40;4.15;;;;;;;;;;5089581;28;20016;-79
2021/04/16 16:24:28;;;;;;;24.48;5.75;;;;;;;;;;5100834;28;20043;-76
2021/04/16 16:26:54;;;;;;;22.25;4.05;;;;;;;;;;5100885;28;20024;-75
2021/04/16 16:29:25;;;;;;;21.75;5.13;;;;;;;;;;5092220;28;20032;-77
2021/04/16 16:31:52;;;;;;;13.85;3.45;;;;;;;;;;5093168;28;21199;-78
2021/04/16 16:34:19;;;;;;;28.80;4.32;;;;;;;;;;5090876;28;20032;-75
2021/04/16 16:36:45;;;;;;;18.52;4.32;;;;;;;;;;5088722;28;20020;-80
2021/04/16 16:39:12;;;;;;;14.10;4.07;;;;;;;;;;5081109;28;20541;-77
2021/04/16 16:41:38;;;;;;;14.43;3.15;;;;;;;;;;5083079;28;20095;-77
2021/04/16 16:44:05;;;;;;;16.48;3.65;;;;;;;;;;5084310;28;20081;-77
2021/04/16 16:46:33;;;;;;;20.98;5.30;;;;;;;;;;5085253;28;20026;-75
2021/04/16 16:48:59;;;;;;;20.00;3.90;;;;;;;;;;5082429;28;20031;-76
2021/04/16 16:51:26;;;;;;;26.15;5.68;;;;;;;;;;5087797;28;20020;-76
2021/04/16 16:53:53;;;;;;;21.40;4.60;;;;;;;;;;5084577;28;20149;-78
2021/04/16 16:56:21;;;;;;;20.70;3.55;;;;;;;;;;5086350;28;20030;-76
2021/04/16 16:58:47;;;;;;;18.52;4.72;;;;;;;;;;5086159;28;20089;-78
2021/04/16 17:01:15;;;;;;;18.13;4.25;;;;;;;;;;5084377;28;20024;-76
2021/04/16 17:03:41;;;;;;;17.38;4.68;;;;;;;;;;5094217;28;20017;-77
2021/04/16 17:06:07;;;;;;;19.45;4.25;;;;;;;;;;5082524;28;20024;-77
2021/04/16 17:08:33;;;;;;;14.40;3.30;;;;;;;;;;5093304;28;20020;-74